Ottumwa Regional Airport Ottumwa US
ICAO: KOTM
IATA: OTM
Category: Medium
Scheduled Services: No

Elevation: 845 ft
TransAlt. 18000 ft.

Airport Communications:
ASOS:124.175
CHICAGO CNTR:118.15
FORT DODGE RDO:122.4
CTAF/UNICOM:123

KOTM Zoom In..

If you have problems with the map follow the link
https://www.worldairports.se/pages/airport.php?
ICAO=KOTM

Runways:

(A) RW 04 length 4600 ft width 100 ft
---- / hdg 42

(B) RW 13 length 5885 ft width 150 ft
---- / hdg 132

(C) RW 22 length 4600 ft width 100 ft
---- / hdg 222

(D) RW 31 length 5885 ft width 150 ft
ILS 109.50 / hdg 312

Location; KOTM
Day. 21 / Time. 05.53 Zulu
* Altimeter: 30.39
* Temperature: -03° c. -26.6°f.
* Wind from: 000° Speed 00 kn.
Dewpoint: -05° c.
Visibility: 10 Statute Miles.
Clouds: Clear (automated report).

KOTM 210553Z AUTO 00000KT 10SM CLR M03/M05 A3039 RMK AO2 SLP296 T10281050 10033 21028 401111028 58002


Wind - Calm.

 
 
jpsmedia.com for Web Design worldairports.se 2018   terms of use